Time;durP1;ratioP1;P1;durP2;ratioP2;P2;SDS_P1;SDS_P2;PMS_P1;PMS_P2;Temp;Humidity;BMP_temperature;BMP_pressure;BME280_temperature;BME280_humidity;BME280_pressure;Samples;Min_cycle;Max_cycle;Signal;HPM_P1;HPM_P2
2023/01/23 00:01:31;;;;;;;17.20;15.23;;;1.20;99.90;;;;;;5094025;28;20236;-83
2023/01/23 00:03:59;;;;;;;21.47;15.93;;;1.20;99.90;;;;;;5093536;28;20248;-83
2023/01/23 00:06:28;;;;;;;21.30;16.48;;;1.20;99.90;;;;;;5093490;28;20217;-82
2023/01/23 00:08:57;;;;;;;16.20;13.97;;;1.10;99.90;;;;;;5093779;28;20299;-83
2023/01/23 00:11:28;;;;;;;16.87;15.07;;;1.20;99.90;;;;;;5092919;28;20228;-83
2023/01/23 00:14:00;;;;;;;16.67;14.87;;;1.20;99.90;;;;;;5093972;28;20228;-83
2023/01/23 00:16:30;;;;;;;20.73;17.33;;;1.20;99.90;;;;;;5093443;28;20208;-84
2023/01/23 00:18:58;;;;;;;19.67;15.27;;;1.20;99.90;;;;;;5093586;28;20208;-83
2023/01/23 00:21:29;;;;;;;19.13;15.10;;;1.20;99.90;;;;;;5093626;28;20220;-83
2023/01/23 00:23:58;;;;;;;16.35;14.32;;;1.20;99.90;;;;;;5093401;28;20243;-83
2023/01/23 00:26:29;;;;;;;16.27;14.57;;;1.20;99.90;;;;;;5093550;28;20212;-83
2023/01/23 00:28:58;;;;;;;20.70;14.43;;;1.20;99.90;;;;;;5094257;28;20219;-84
2023/01/23 00:31:29;;;;;;;14.45;12.77;;;1.20;99.90;;;;;;5095644;28;20362;-84
2023/01/23 00:34:00;;;;;;;17.42;15.20;;;1.20;99.90;;;;;;5095641;28;20228;-84
2023/01/23 00:36:30;;;;;;;19.00;14.77;;;1.20;99.90;;;;;;5095613;28;20425;-84
2023/01/23 00:38:59;;;;;;;18.77;15.13;;;1.20;99.90;;;;;;5095596;28;20214;-84
2023/01/23 00:41:27;;;;;;;22.10;16.80;;;1.20;99.90;;;;;;5095548;28;20196;-84
2023/01/23 00:43:56;;;;;;;17.23;15.20;;;1.30;99.90;;;;;;5095289;28;20220;-84
2023/01/23 00:46:25;;;;;;;18.80;14.73;;;1.30;99.90;;;;;;5095608;28;20211;-84
2023/01/23 00:48:54;;;;;;;18.70;15.53;;;1.20;99.90;;;;;;5095228;28;20200;-84
2023/01/23 00:51:22;;;;;;;17.33;15.43;;;1.30;99.90;;;;;;5095293;28;20220;-84
2023/01/23 00:53:51;;;;;;;22.90;16.30;;;1.20;99.90;;;;;;5095352;28;20236;-83
2023/01/23 00:56:19;;;;;;;17.33;14.60;;;1.20;99.90;;;;;;5095208;28;20216;-83
2023/01/23 00:58:47;;;;;;;15.23;13.55;;;1.20;99.90;;;;;;5094889;28;20208;-83
2023/01/23 01:01:17;;;;;;;15.83;14.03;;;1.20;99.90;;;;;;5094356;28;20192;-84
2023/01/23 01:03:46;;;;;;;20.07;17.00;;;1.20;99.90;;;;;;5095065;28;20224;-83
2023/01/23 01:06:15;;;;;;;31.70;16.20;;;1.20;99.90;;;;;;5095365;28;20308;-83
2023/01/23 01:08:43;;;;;;;19.37;16.80;;;1.20;99.90;;;;;;5094852;28;20201;-83
2023/01/23 01:11:12;;;;;;;16.60;14.07;;;1.20;99.90;;;;;;5094689;28;20220;-82
2023/01/23 01:13:40;;;;;;;19.55;16.20;;;1.20;99.90;;;;;;5095092;28;20303;-83
2023/01/23 01:16:09;;;;;;;17.67;15.73;;;1.20;99.90;;;;;;5094842;28;20207;-83
2023/01/23 01:18:38;;;;;;;19.13;16.05;;;1.30;99.90;;;;;;5094945;28;20204;-83
2023/01/23 01:21:09;;;;;;;19.77;15.33;;;1.30;99.90;;;;;;5095082;28;20207;-83
2023/01/23 01:23:38;;;;;;;23.13;16.80;;;1.30;99.90;;;;;;5094727;28;20235;-83
2023/01/23 01:26:07;;;;;;;20.23;16.27;;;1.30;99.90;;;;;;5094676;28;20201;-83
2023/01/23 01:28:39;;;;;;;18.67;15.47;;;1.30;99.90;;;;;;5094597;28;20197;-83
2023/01/23 01:31:09;;;;;;;20.93;16.80;;;1.30;99.90;;;;;;5094362;28;20216;-83
2023/01/23 01:33:39;;;;;;;21.10;17.45;;;1.40;99.90;;;;;;5094809;28;20236;-82
2023/01/23 01:36:11;;;;;;;23.97;17.67;;;1.40;99.90;;;;;;5094269;28;20212;-83
2023/01/23 01:38:40;;;;;;;18.47;16.20;;;1.40;99.90;;;;;;5094284;28;20208;-83
2023/01/23 01:41:09;;;;;;;20.73;17.27;;;1.30;99.90;;;;;;5094312;28;20200;-83
2023/01/23 01:43:37;;;;;;;18.93;16.47;;;1.40;99.90;;;;;;5094164;28;20228;-83
2023/01/23 01:46:17;;;;;;;22.70;17.90;;;1.30;99.90;;;;;;5094117;28;20204;-83
2023/01/23 01:48:51;;;;;;;24.03;17.13;;;1.30;99.90;;;;;;5093959;28;20232;-84
2023/01/23 01:51:27;;;;;;;21.30;17.37;;;1.40;99.90;;;;;;5094038;28;20212;-83
2023/01/23 01:54:02;;;;;;;23.17;18.43;;;1.30;99.90;;;;;;5094163;28;20231;-85
2023/01/23 01:56:34;;;;;;;26.33;18.13;;;1.30;99.90;;;;;;5093919;28;20203;-83
2023/01/23 01:59:04;;;;;;;24.77;18.53;;;1.30;99.90;;;;;;5093850;28;20209;-83
2023/01/23 02:01:32;;;;;;;23.00;17.80;;;1.30;99.90;;;;;;5094132;28;20200;-84
2023/01/23 02:04:01;;;;;;;21.93;16.77;;;1.30;99.90;;;;;;5093945;28;20232;-84
2023/01/23 02:06:32;;;;;;;25.13;17.90;;;1.30;99.90;;;;;;5093873;28;20208;-83
2023/01/23 02:09:04;;;;;;;20.53;17.47;;;1.20;99.90;;;;;;5093688;28;20211;-85
2023/01/23 02:11:33;;;;;;;25.53;17.17;;;1.20;99.90;;;;;;5093956;28;20226;-83
2023/01/23 02:14:01;;;;;;;30.80;19.40;;;1.20;99.90;;;;;;5093798;28;20232;-83
2023/01/23 02:16:38;;;;;;;24.37;19.13;;;1.20;99.90;;;;;;5093560;28;20208;-83
2023/01/23 02:19:19;;;;;;;24.30;18.33;;;1.30;99.90;;;;;;5093993;28;20212;-83
2023/01/23 02:21:56;;;;;;;22.53;17.50;;;1.30;99.90;;;;;;5093731;28;20210;-83
2023/01/23 02:24:30;;;;;;;25.40;19.23;;;1.30;99.90;;;;;;5093666;28;20242;-85
2023/01/23 02:27:02;;;;;;;24.13;19.03;;;1.30;99.90;;;;;;5093430;28;20212;-83
2023/01/23 02:29:40;;;;;;;21.97;17.97;;;1.30;99.90;;;;;;5093644;28;20249;-84
2023/01/23 02:32:09;;;;;;;21.20;17.77;;;1.30;99.90;;;;;;5093166;28;20220;-83
2023/01/23 02:34:37;;;;;;;27.53;18.10;;;1.30;99.90;;;;;;5093418;28;20196;-84
2023/01/23 02:37:08;;;;;;;29.30;19.07;;;1.30;99.90;;;;;;5093198;28;20206;-84
2023/01/23 02:39:36;;;;;;;44.47;20.17;;;1.30;99.90;;;;;;5093553;28;20214;-83
2023/01/23 02:42:07;;;;;;;21.17;17.90;;;1.30;99.90;;;;;;5093299;28;20204;-84
2023/01/23 02:44:35;;;;;;;29.10;19.37;;;1.30;99.90;;;;;;5093233;28;20196;-84
2023/01/23 02:47:06;;;;;;;27.40;19.00;;;1.40;99.90;;;;;;5092534;28;20208;-84
2023/01/23 02:49:35;;;;;;;25.10;19.77;;;1.40;99.90;;;;;;5092744;28;20200;-83
2023/01/23 02:52:04;;;;;;;24.98;18.13;;;1.30;99.90;;;;;;5092887;28;20289;-84
2023/01/23 02:54:32;;;;;;;33.20;21.87;;;1.40;99.90;;;;;;5093566;28;20271;-84
2023/01/23 02:57:01;;;;;;;31.47;20.60;;;1.40;99.90;;;;;;5092883;28;20211;-83
2023/01/23 03:02:16;;;;;;;25.17;19.47;;;1.40;99.90;;;;;;5092870;28;20204;-84
2023/01/23 03:04:45;;;;;;;24.87;19.93;;;1.40;99.90;;;;;;5093248;28;20208;-84
2023/01/23 03:07:14;;;;;;;23.83;18.50;;;1.40;99.90;;;;;;5092928;28;20212;-83
2023/01/23 03:09:45;;;;;;;23.57;18.63;;;1.40;99.90;;;;;;5092749;28;20215;-84
2023/01/23 03:12:13;;;;;;;30.73;19.80;;;1.40;99.90;;;;;;5092409;28;20228;-84
2023/01/23 03:14:43;;;;;;;37.10;21.13;;;1.50;99.90;;;;;;5093089;28;20200;-83
2023/01/23 03:17:13;;;;;;;25.87;19.03;;;1.40;99.90;;;;;;5092762;28;20207;-84
2023/01/23 03:19:42;;;;;;;23.83;19.70;;;1.40;99.90;;;;;;5093018;28;20204;-84
2023/01/23 03:22:10;;;;;;;27.93;19.93;;;1.40;99.90;;;;;;5092689;28;20204;-83
2023/01/23 03:24:38;;;;;;;27.23;20.27;;;1.50;99.90;;;;;;5097908;28;20211;-83
2023/01/23 03:27:06;;;;;;;23.77;18.77;;;1.50;99.90;;;;;;5099198;28;20204;-83
2023/01/23 03:32:24;;;;;;;35.83;20.38;;;1.40;99.90;;;;;;5099400;28;20231;-84
2023/01/23 03:34:53;;;;;;;22.57;19.43;;;1.50;99.90;;;;;;5099804;28;20204;-83
2023/01/23 03:37:21;;;;;;;42.08;21.88;;;1.50;99.90;;;;;;5099075;28;20200;-82
2023/01/23 03:42:35;;;;;;;23.37;19.43;;;1.50;99.90;;;;;;5099427;28;20224;-83
2023/01/23 03:45:04;;;;;;;26.87;19.67;;;1.50;99.90;;;;;;5099458;28;20218;-85
2023/01/23 03:47:34;;;;;;;30.87;20.60;;;1.50;99.90;;;;;;5098629;28;20222;-83
2023/01/23 03:50:03;;;;;;;32.07;20.47;;;1.40;99.90;;;;;;5099555;28;20212;-83
2023/01/23 03:52:31;;;;;;;24.33;19.80;;;1.40;99.90;;;;;;5098903;28;20236;-83
2023/01/23 03:55:00;;;;;;;26.70;19.43;;;1.40;99.90;;;;;;5099044;28;20204;-83
2023/01/23 03:57:28;;;;;;;25.60;20.47;;;1.40;99.90;;;;;;5098977;28;20250;-82
2023/01/23 03:59:56;;;;;;;23.60;18.95;;;1.40;99.90;;;;;;5099061;28;20208;-83
2023/01/23 04:02:25;;;;;;;24.93;20.47;;;1.40;99.90;;;;;;5099116;28;20215;-83
2023/01/23 04:04:54;;;;;;;27.77;19.37;;;1.40;99.90;;;;;;5098883;28;20410;-84
2023/01/23 04:07:23;;;;;;;24.53;19.73;;;1.40;99.90;;;;;;5099056;28;20231;-83
2023/01/23 04:09:51;;;;;;;35.20;19.93;;;1.40;99.90;;;;;;5099339;28;20200;-83
2023/01/23 04:12:19;;;;;;;32.07;20.03;;;1.40;99.90;;;;;;5098765;28;20220;-83
2023/01/23 04:14:47;;;;;;;25.00;20.40;;;1.40;99.90;;;;;;5098948;28;20207;-83
2023/01/23 04:17:16;;;;;;;23.57;18.43;;;1.30;99.90;;;;;;5098908;28;20204;-83
2023/01/23 04:19:44;;;;;;;26.07;19.97;;;1.30;99.90;;;;;;5099152;28;20212;-83
2023/01/23 04:22:14;;;;;;;28.50;21.47;;;1.30;99.90;;;;;;5098592;28;20204;-84
2023/01/23 04:24:42;;;;;;;23.53;19.77;;;1.30;99.90;;;;;;5099237;28;20219;-83
2023/01/23 04:27:10;;;;;;;30.93;23.90;;;1.30;99.90;;;;;;5098936;28;20204;-83
2023/01/23 04:29:38;;;;;;;28.43;21.57;;;1.30;99.90;;;;;;5098793;28;20211;-83
2023/01/23 04:32:08;;;;;;;31.30;22.27;;;1.30;99.90;;;;;;5098707;28;20231;-83
2023/01/23 04:34:36;;;;;;;26.37;20.03;;;1.30;99.90;;;;;;5097502;28;20212;-83
2023/01/23 04:37:05;;;;;;;23.17;19.17;;;1.30;99.90;;;;;;5094897;28;20212;-83
2023/01/23 04:39:34;;;;;;;33.77;22.40;;;1.30;99.90;;;;;;5095169;28;20208;-83
2023/01/23 04:42:03;;;;;;;24.67;19.73;;;1.30;99.90;;;;;;5095530;28;20259;-83
2023/01/23 04:44:31;;;;;;;26.13;20.77;;;1.20;99.90;;;;;;5095772;28;20212;-83
2023/01/23 04:47:00;;;;;;;22.93;19.37;;;1.30;99.90;;;;;;5094715;28;20205;-83
2023/01/23 04:49:28;;;;;;;32.90;22.87;;;1.30;99.90;;;;;;5095530;28;20204;-83
2023/01/23 04:51:56;;;;;;;24.70;19.47;;;1.30;99.90;;;;;;5095701;28;20201;-83
2023/01/23 04:54:24;;;;;;;28.83;21.03;;;1.30;99.90;;;;;;5095508;28;20236;-83
2023/01/23 04:56:54;;;;;;;24.03;19.27;;;1.30;99.90;;;;;;5095234;28;20200;-82
2023/01/23 04:59:22;;;;;;;33.33;20.70;;;1.30;99.90;;;;;;5094909;28;20206;-82
2023/01/23 05:01:51;;;;;;;26.10;20.47;;;1.40;99.90;;;;;;5094998;28;20200;-83
2023/01/23 05:04:19;;;;;;;23.47;19.40;;;1.30;99.90;;;;;;5095417;28;20224;-83
2023/01/23 05:06:47;;;;;;;29.10;19.17;;;1.30;99.90;;;;;;5094776;28;20205;-84
2023/01/23 05:09:15;;;;;;;28.83;20.77;;;1.30;99.90;;;;;;5094769;28;20205;-83
2023/01/23 05:11:43;;;;;;;28.47;21.40;;;1.30;99.90;;;;;;5095001;28;20234;-83
2023/01/23 05:14:13;;;;;;;25.50;21.27;;;1.30;99.90;;;;;;5094450;28;20225;-82
2023/01/23 05:16:41;;;;;;;26.13;20.13;;;1.30;99.90;;;;;;5094523;28;20289;-83
2023/01/23 05:19:10;;;;;;;26.70;19.43;;;1.30;99.90;;;;;;5095223;28;20215;-83
2023/01/23 05:21:38;;;;;;;25.03;19.33;;;1.20;99.90;;;;;;5094768;28;20200;-83
2023/01/23 05:24:09;;;;;;;33.57;18.00;;;1.30;99.90;;;;;;5094301;28;20231;-82
2023/01/23 05:26:37;;;;;;;30.10;19.07;;;1.30;99.90;;;;;;5094511;28;20220;-82
2023/01/23 05:29:06;;;;;;;28.30;19.33;;;1.20;99.90;;;;;;5094265;28;20213;-83
2023/01/23 05:31:35;;;;;;;22.40;15.87;;;1.30;99.90;;;;;;5095254;28;20209;-82
2023/01/23 05:34:04;;;;;;;27.63;17.93;;;1.20;99.90;;;;;;5094698;28;20270;-82
2023/01/23 05:36:32;;;;;;;27.80;18.40;;;1.20;99.90;;;;;;5094214;28;20235;-82
2023/01/23 05:39:00;;;;;;;23.43;18.23;;;1.20;99.90;;;;;;5094172;28;20207;-83
2023/01/23 05:41:29;;;;;;;30.17;17.27;;;1.20;99.90;;;;;;5094157;28;20205;-82
2023/01/23 05:43:57;;;;;;;21.47;15.73;;;1.20;99.90;;;;;;5094507;28;20224;-82
2023/01/23 05:46:25;;;;;;;19.83;15.63;;;1.20;99.90;;;;;;5093914;28;20211;-82
2023/01/23 05:48:55;;;;;;;18.53;15.30;;;1.20;99.90;;;;;;5094270;28;20204;-83
2023/01/23 05:51:30;;;;;;;16.67;13.83;;;1.20;99.90;;;;;;5094255;28;20200;-83
2023/01/23 05:53:58;;;;;;;20.03;14.63;;;1.20;99.90;;;;;;5094074;28;20260;-82
2023/01/23 05:56:27;;;;;;;21.10;17.13;;;1.20;99.90;;;;;;5094454;28;20208;-83
2023/01/23 05:58:55;;;;;;;20.47;15.00;;;1.20;99.90;;;;;;5094096;28;20299;-83
2023/01/23 06:01:24;;;;;;;18.87;14.47;;;1.20;99.90;;;;;;5094039;28;20212;-83
2023/01/23 06:03:53;;;;;;;16.23;14.53;;;1.20;99.90;;;;;;5093796;28;20223;-83
2023/01/23 06:06:22;;;;;;;18.23;15.73;;;1.20;99.90;;;;;;5093607;28;20226;-84
2023/01/23 06:08:50;;;;;;;17.73;14.67;;;1.30;99.90;;;;;;5093698;28;20295;-83
2023/01/23 06:11:18;;;;;;;16.73;13.50;;;1.30;99.90;;;;;;5094214;28;20208;-82
2023/01/23 06:13:47;;;;;;;17.40;13.67;;;1.30;99.90;;;;;;5093694;28;20225;-84
2023/01/23 06:16:15;;;;;;;15.60;13.97;;;1.30;99.90;;;;;;5094210;28;20215;-83
2023/01/23 06:18:43;;;;;;;13.98;12.32;;;1.30;99.90;;;;;;5093373;28;20228;-83
2023/01/23 06:21:14;;;;;;;24.13;14.77;;;1.30;99.90;;;;;;5093900;28;20204;-84
2023/01/23 06:23:42;;;;;;;16.87;13.33;;;1.30;99.90;;;;;;5093592;28;20234;-83
2023/01/23 06:26:10;;;;;;;18.57;13.77;;;1.30;99.90;;;;;;5093469;28;20215;-83
2023/01/23 06:28:38;;;;;;;20.17;14.53;;;1.20;99.90;;;;;;5093288;28;20204;-83
2023/01/23 06:31:09;;;;;;;16.17;13.53;;;1.30;99.90;;;;;;5093166;28;20204;-84
2023/01/23 06:33:37;;;;;;;20.17;14.00;;;1.30;99.90;;;;;;5093465;28;20285;-84
2023/01/23 06:36:07;;;;;;;18.17;14.73;;;1.30;99.90;;;;;;5093794;28;20211;-83
2023/01/23 06:38:37;;;;;;;16.20;14.47;;;1.30;99.90;;;;;;5093566;28;20212;-83
2023/01/23 06:41:05;;;;;;;19.47;15.20;;;1.40;99.90;;;;;;5093167;28;20235;-83
2023/01/23 06:43:33;;;;;;;19.60;13.80;;;1.30;99.90;;;;;;5093091;28;20230;-84
2023/01/23 06:46:04;;;;;;;17.87;14.40;;;1.30;99.90;;;;;;5092880;28;20202;-83
2023/01/23 06:48:32;;;;;;;18.27;13.87;;;1.30;99.90;;;;;;5092939;28;20204;-83
2023/01/23 06:51:00;;;;;;;16.37;12.97;;;1.30;99.90;;;;;;5093353;28;20208;-82
2023/01/23 06:53:29;;;;;;;15.50;12.53;;;1.30;99.90;;;;;;5093034;28;20224;-82
2023/01/23 06:56:01;;;;;;;15.27;13.63;;;1.30;99.90;;;;;;5092980;28;20291;-83
2023/01/23 06:58:29;;;;;;;16.70;12.87;;;1.30;99.90;;;;;;5092417;28;20295;-84
2023/01/23 07:00:57;;;;;;;14.53;12.73;;;1.30;99.90;;;;;;5093145;28;20207;-82
2023/01/23 07:03:26;;;;;;;13.47;12.07;;;1.30;99.90;;;;;;5093161;28;20236;-83
2023/01/23 07:05:54;;;;;;;15.70;14.00;;;1.40;99.90;;;;;;5093159;28;20217;-83
2023/01/23 07:08:22;;;;;;;17.03;11.50;;;1.40;99.90;;;;;;5092652;28;20212;-83
2023/01/23 07:10:50;;;;;;;20.10;13.43;;;1.40;99.90;;;;;;5093013;28;20204;-83
2023/01/23 07:13:20;;;;;;;16.30;13.20;;;1.40;99.90;;;;;;5092692;28;20232;-82
2023/01/23 07:15:48;;;;;;;18.07;13.63;;;1.40;99.90;;;;;;5092933;28;20305;-83
2023/01/23 07:18:17;;;;;;;16.30;13.73;;;1.40;99.90;;;;;;5092643;28;20240;-83
2023/01/23 07:20:45;;;;;;;24.47;12.93;;;1.40;99.90;;;;;;5092473;28;20204;-83
2023/01/23 07:23:13;;;;;;;21.03;13.73;;;1.40;99.90;;;;;;5092530;28;20240;-84
2023/01/23 07:25:42;;;;;;;17.87;12.97;;;1.50;99.90;;;;;;5092861;28;20201;-82
2023/01/23 07:28:10;;;;;;;16.67;12.85;;;1.50;99.90;;;;;;5092558;28;20204;-82
2023/01/23 07:30:40;;;;;;;20.10;13.07;;;1.40;99.90;;;;;;5092578;28;20211;-82
2023/01/23 07:33:08;;;;;;;15.80;12.93;;;1.50;99.90;;;;;;5092509;28;20227;-83
2023/01/23 07:35:38;;;;;;;16.17;13.90;;;1.50;99.90;;;;;;5092140;28;20227;-83
2023/01/23 07:38:07;;;;;;;18.80;12.47;;;1.50;99.90;;;;;;5092406;28;20218;-83
2023/01/23 07:40:37;;;;;;;12.47;11.17;;;1.50;99.90;;;;;;5092413;28;20247;-83
2023/01/23 07:43:06;;;;;;;20.23;12.82;;;1.50;99.90;;;;;;5092668;28;20224;-83
2023/01/23 07:45:34;;;;;;;16.07;12.63;;;1.50;99.90;;;;;;5092214;28;20196;-83
2023/01/23 07:48:04;;;;;;;17.40;12.63;;;1.50;99.90;;;;;;5092147;28;20208;-83
2023/01/23 07:50:33;;;;;;;14.47;12.67;;;1.50;99.90;;;;;;5092576;28;20204;-83
2023/01/23 07:53:02;;;;;;;16.13;14.23;;;1.50;99.90;;;;;;5092679;28;20226;-83
2023/01/23 07:55:30;;;;;;;15.33;13.33;;;1.50;99.90;;;;;;5092451;28;20307;-83
2023/01/23 07:57:58;;;;;;;15.17;13.17;;;1.50;99.90;;;;;;5092320;28;20208;-83
2023/01/23 08:00:28;;;;;;;19.33;14.23;;;1.50;99.90;;;;;;5092389;28;20209;-82
2023/01/23 08:02:57;;;;;;;19.17;13.67;;;1.50;99.90;;;;;;5092194;28;20232;-83
2023/01/23 08:05:31;;;;;;;17.57;13.07;;;1.50;99.90;;;;;;5092504;28;20200;-84
2023/01/23 08:07:59;;;;;;;16.33;12.40;;;1.50;99.90;;;;;;5092289;28;20205;-84
2023/01/23 08:10:40;;;;;;;14.63;12.90;;;1.50;99.90;;;;;;5095259;28;20212;-83
2023/01/23 08:13:09;;;;;;;20.27;14.10;;;1.40;99.90;;;;;;5096203;28;20228;-83
2023/01/23 08:15:37;;;;;;;14.48;10.95;;;1.40;99.90;;;;;;5095926;28;20224;-83
2023/01/23 08:18:06;;;;;;;22.23;14.43;;;1.40;99.90;;;;;;5096020;28;20208;-82
2023/01/23 08:20:36;;;;;;;17.30;13.60;;;1.50;99.90;;;;;;5096278;28;20219;-83
2023/01/23 08:23:04;;;;;;;15.57;13.73;;;1.50;99.90;;;;;;5095945;28;20350;-82
2023/01/23 08:25:37;;;;;;;20.43;14.73;;;1.50;99.90;;;;;;5096036;28;20200;-83
2023/01/23 08:28:05;;;;;;;18.03;14.03;;;1.60;99.90;;;;;;5095679;28;20200;-83
2023/01/23 08:30:34;;;;;;;18.53;13.60;;;1.50;99.90;;;;;;5095755;28;20267;-84
2023/01/23 08:33:03;;;;;;;17.63;13.87;;;1.60;99.90;;;;;;5095740;28;20246;-83
2023/01/23 08:35:31;;;;;;;17.60;13.20;;;1.60;99.90;;;;;;5095314;28;20220;-83
2023/01/23 08:38:02;;;;;;;17.20;13.70;;;1.60;99.90;;;;;;5095512;28;20216;-83
2023/01/23 08:40:31;;;;;;;18.97;13.93;;;1.50;99.90;;;;;;5095608;28;20208;-83
2023/01/23 08:42:59;;;;;;;19.67;15.37;;;1.60;99.90;;;;;;5095266;28;20217;-83
2023/01/23 08:45:27;;;;;;;538.30;255.80;;;1.60;99.90;;;;;;5095159;28;20219;-82
2023/01/23 08:47:58;;;;;;;168.37;65.37;;;1.70;99.90;;;;;;5095463;28;20208;-83
2023/01/23 08:50:26;;;;;;;111.40;48.90;;;1.70;99.90;;;;;;5095894;28;20208;-83
2023/01/23 08:52:55;;;;;;;23.60;16.07;;;1.70;99.90;;;;;;5095719;28;20236;-83
2023/01/23 08:55:27;;;;;;;24.23;18.37;;;1.70;99.90;;;;;;5095087;28;20250;-83
2023/01/23 08:57:57;;;;;;;18.73;14.52;;;1.70;99.90;;;;;;5095113;28;20267;-82
2023/01/23 09:00:28;;;;;;;25.80;17.05;;;1.70;99.90;;;;;;5095288;28;20268;-82
2023/01/23 09:02:59;;;;;;;16.67;14.83;;;1.70;99.90;;;;;;5095351;28;20228;-82
2023/01/23 09:05:28;;;;;;;19.97;14.57;;;1.70;99.90;;;;;;5095348;28;20215;-83
2023/01/23 09:07:57;;;;;;;21.27;15.02;;;1.80;99.90;;;;;;5094901;28;20208;-82
2023/01/23 09:10:30;;;;;;;19.63;15.27;;;1.70;99.90;;;;;;5094899;28;20303;-83
2023/01/23 09:12:58;;;;;;;17.40;15.17;;;1.70;99.90;;;;;;5094992;28;20224;-82
2023/01/23 09:15:27;;;;;;;17.00;14.47;;;1.70;99.90;;;;;;5094887;28;20284;-83
2023/01/23 09:17:55;;;;;;;25.97;15.53;;;1.70;99.90;;;;;;5095273;28;20296;-83
2023/01/23 09:20:25;;;;;;;24.77;14.17;;;1.70;99.90;;;;;;5094950;28;20204;-82
2023/01/23 09:22:53;;;;;;;19.60;14.87;;;1.60;99.90;;;;;;5094001;28;20270;-83
2023/01/23 09:25:22;;;;;;;16.07;13.23;;;1.60;99.90;;;;;;5094877;28;20193;-82
2023/01/23 09:27:52;;;;;;;19.00;14.20;;;1.70;99.90;;;;;;5094435;28;20204;-83
2023/01/23 09:30:20;;;;;;;19.90;15.67;;;1.60;99.90;;;;;;5094886;28;20201;-82
2023/01/23 09:32:49;;;;;;;30.67;16.33;;;1.60;99.90;;;;;;5094534;28;20235;-82
2023/01/23 09:35:17;;;;;;;19.10;14.68;;;1.70;99.90;;;;;;5094328;28;20216;-82
2023/01/23 09:38:03;;;;;;;20.27;13.67;;;1.70;99.90;;;;;;5094593;28;20230;-82
2023/01/23 09:40:34;;;;;;;19.30;13.50;;;1.70;99.90;;;;;;5094968;28;20232;-83
2023/01/23 09:43:13;;;;;;;16.33;12.70;;;1.70;99.90;;;;;;5094511;28;20224;-81
2023/01/23 09:45:43;;;;;;;15.37;12.77;;;1.70;99.90;;;;;;5094345;28;20196;-82
2023/01/23 09:48:20;;;;;;;15.00;12.80;;;1.80;99.90;;;;;;5094155;28;20201;-82
2023/01/23 09:50:55;;;;;;;20.70;13.33;;;1.80;99.90;;;;;;5094394;28;20298;-81
2023/01/23 09:53:27;;;;;;;16.77;12.37;;;1.80;99.90;;;;;;5094281;28;20228;-82
2023/01/23 09:55:59;;;;;;;17.97;13.23;;;1.80;99.90;;;;;;5094013;28;20220;-82
2023/01/23 09:58:34;;;;;;;14.48;11.65;;;1.80;99.90;;;;;;5094412;28;20207;-82
2023/01/23 10:01:03;;;;;;;14.27;11.98;;;1.90;99.90;;;;;;5093716;28;20210;-82
2023/01/23 10:03:32;;;;;;;15.35;12.77;;;2.00;99.90;;;;;;5093936;28;20235;-82
2023/01/23 10:06:12;;;;;;;17.80;13.50;;;2.00;99.90;;;;;;5093649;28;20201;-82
2023/01/23 10:08:48;;;;;;;12.32;11.10;;;2.00;99.90;;;;;;5093825;28;20204;-82
2023/01/23 10:11:24;;;;;;;13.60;11.50;;;2.00;99.90;;;;;;5094147;28;20204;-83
2023/01/23 10:14:10;;;;;;;14.95;11.23;;;2.00;99.90;;;;;;5093970;28;20231;-82
2023/01/23 10:16:54;;;;;;;16.05;11.57;;;1.90;99.90;;;;;;5093644;28;20239;-82
2023/01/23 10:19:39;;;;;;;16.67;11.90;;;1.90;99.90;;;;;;5093841;28;20205;-82
2023/01/23 10:22:20;;;;;;;14.60;10.30;;;2.00;99.90;;;;;;5093697;28;20215;-82
2023/01/23 10:24:52;;;;;;;13.30;11.40;;;1.90;99.90;;;;;;5093928;28;20209;-82
2023/01/23 10:27:22;;;;;;;11.70;10.48;;;1.90;99.90;;;;;;5093469;28;20192;-82
2023/01/23 10:30:03;;;;;;;16.27;11.43;;;2.00;99.90;;;;;;5093479;28;20238;-82
2023/01/23 10:32:56;;;;;;;;;;;;;;;;;;;;;
2023/01/23 10:35:32;;;;;;;12.20;10.25;;;2.10;99.90;;;;;;5093271;28;20232;-83
2023/01/23 10:38:03;;;;;;;15.70;11.80;;;2.10;99.90;;;;;;5093435;28;20207;-83
2023/01/23 10:43:22;;;;;;;13.45;12.05;;;2.10;99.90;;;;;;5093543;28;20232;-82
2023/01/23 10:45:54;;;;;;;16.65;11.70;;;2.10;99.90;;;;;;5093059;28;20207;-81
2023/01/23 10:48:45;;;;;;;17.00;11.77;;;2.10;99.90;;;;;;5093234;28;20273;-82
2023/01/23 10:51:46;;;;;;;18.87;11.03;;;2.10;99.90;;;;;;5089888;28;20264;-82
2023/01/23 10:54:19;;;;;;;13.83;11.30;;;2.10;99.90;;;;;;5093377;28;20232;-81
2023/01/23 10:57:01;;;;;;;13.93;11.80;;;2.10;99.90;;;;;;5092808;28;20235;-82
2023/01/23 10:59:34;;;;;;;18.02;12.35;;;2.00;99.90;;;;;;5092979;28;20215;-82
2023/01/23 11:02:28;;;;;;;14.00;11.82;;;2.00;99.90;;;;;;5092866;28;20208;-82
2023/01/23 11:04:59;;;;;;;12.40;11.00;;;2.00;99.90;;;;;;5093360;28;20231;-82
2023/01/23 11:07:30;;;;;;;27.67;13.37;;;2.10;99.90;;;;;;5092798;28;20204;-83
2023/01/23 11:10:03;;;;;;;15.55;11.25;;;2.10;99.90;;;;;;5092548;28;20408;-83
2023/01/23 11:12:33;;;;;;;13.77;11.10;;;2.10;99.90;;;;;;5092481;28;20311;-84
2023/01/23 11:15:21;;;;;;;13.77;11.13;;;2.10;99.90;;;;;;5093167;28;20210;-83
2023/01/23 11:17:55;;;;;;;13.90;11.73;;;2.10;99.90;;;;;;5093242;28;20230;-82
2023/01/23 11:20:30;;;;;;;13.25;11.68;;;2.00;99.90;;;;;;5092888;28;20208;-82
2023/01/23 11:23:07;;;;;;;17.80;11.48;;;2.10;99.90;;;;;;5092198;28;20232;-83
2023/01/23 11:25:38;;;;;;;13.38;11.45;;;2.10;99.90;;;;;;5093103;28;20259;-83
2023/01/23 11:28:22;;;;;;;12.05;10.65;;;2.00;99.90;;;;;;5092920;28;20212;-83
2023/01/23 11:30:54;;;;;;;14.00;11.25;;;2.10;99.90;;;;;;5092755;28;20231;-83
2023/01/23 11:33:52;;;;;;;13.45;10.80;;;2.00;99.90;;;;;;5092790;28;20288;-83
2023/01/23 11:36:40;;;;;;;14.43;11.73;;;2.10;99.90;;;;;;5092844;28;20252;-83
2023/01/23 11:39:22;;;;;;;17.80;10.85;;;2.10;99.90;;;;;;5092372;28;20208;-83
2023/01/23 11:41:51;;;;;;;12.68;10.27;;;2.10;99.90;;;;;;5092509;28;20250;-83
2023/01/23 11:44:22;;;;;;;10.65;9.55;;;2.20;99.90;;;;;;5092785;28;20232;-82
2023/01/23 11:47:10;;;;;;;13.77;10.65;;;2.20;99.90;;;;;;5096634;28;20200;-82
2023/01/23 11:49:59;;;;;;;13.93;11.23;;;2.10;99.90;;;;;;5096590;28;20210;-83
2023/01/23 11:52:41;;;;;;;16.80;12.10;;;2.20;99.90;;;;;;5096782;28;20243;-84
2023/01/23 11:55:30;;;;;;;14.35;11.25;;;2.20;99.90;;;;;;5096551;28;20264;-83
2023/01/23 11:58:13;;;;;;;16.70;12.75;;;2.20;99.90;;;;;;5096188;28;20224;-82
2023/01/23 12:00:47;;;;;;;13.15;11.18;;;2.20;99.90;;;;;;5096731;28;20204;-82
2023/01/23 12:03:41;;;;;;;13.13;11.82;;;2.20;99.90;;;;;;5095851;28;20227;-82
2023/01/23 12:06:46;;;;;;;18.77;12.85;;;2.20;99.90;;;;;;5096701;28;20203;-83
2023/01/23 12:09:15;;;;;;;15.63;11.27;;;2.20;99.90;;;;;;5083676;28;20271;-83
2023/01/23 12:11:56;;;;;;;11.82;10.70;;;2.20;99.90;;;;;;5096470;28;20205;-83
2023/01/23 12:14:32;;;;;;;14.10;12.30;;;2.30;99.90;;;;;;5096105;28;20280;-84
2023/01/23 12:17:11;;;;;;;17.50;12.65;;;2.30;99.90;;;;;;5095603;28;20239;-83
2023/01/23 12:20:16;;;;;;;12.80;11.55;;;2.30;99.90;;;;;;5096292;28;20204;-83
2023/01/23 12:23:04;;;;;;;16.90;13.52;;;2.40;99.90;;;;;;5096187;28;20284;-83
2023/01/23 12:25:36;;;;;;;13.10;11.60;;;2.30;99.90;;;;;;5095855;28;20289;-83
2023/01/23 12:28:17;;;;;;;15.07;10.73;;;2.30;99.90;;;;;;5095817;28;20270;-84
2023/01/23 12:30:59;;;;;;;13.88;10.85;;;2.40;99.90;;;;;;5095620;28;20217;-83
2023/01/23 12:33:45;;;;;;;12.35;10.88;;;2.40;99.90;;;;;;5095668;28;20216;-84
2023/01/23 12:36:35;;;;;;;18.23;12.35;;;2.50;99.90;;;;;;5096135;28;20211;-83
2023/01/23 12:39:44;;;;;;;12.60;11.32;;;2.50;99.90;;;;;;5095737;28;20299;-84
2023/01/23 12:42:17;;;;;;;17.15;13.02;;;2.50;99.90;;;;;;5095173;28;20222;-84
2023/01/23 12:44:56;;;;;;;13.00;11.68;;;2.60;99.90;;;;;;5095768;28;20204;-82
2023/01/23 12:47:28;;;;;;;16.13;11.95;;;2.60;99.90;;;;;;5095054;28;20223;-82
2023/01/23 12:50:01;;;;;;;14.45;10.88;;;2.60;99.90;;;;;;5096135;28;20292;-82
2023/01/23 12:52:38;;;;;;;12.77;10.80;;;2.60;99.90;;;;;;5095173;28;20237;-82
2023/01/23 12:55:17;;;;;;;14.00;11.63;;;2.60;99.90;;;;;;5095443;28;20207;-83
2023/01/23 12:57:58;;;;;;;13.65;11.07;;;2.70;99.90;;;;;;5093880;28;20224;-83
2023/01/23 13:00:50;;;;;;;17.88;12.73;;;2.60;99.90;;;;;;5095307;28;20217;-82
2023/01/23 13:03:47;;;;;;;12.40;11.13;;;2.70;99.90;;;;;;5095211;28;20224;-82
2023/01/23 13:06:34;;;;;;;12.20;10.43;;;2.60;99.90;;;;;;5095080;28;20212;-83
2023/01/23 13:09:09;;;;;;;10.73;9.68;;;2.70;99.90;;;;;;5094738;28;20268;-82
2023/01/23 13:12:03;;;;;;;10.75;9.65;;;2.70;99.90;;;;;;5094832;28;20214;-82
2023/01/23 13:14:44;;;;;;;15.40;12.05;;;2.70;99.90;;;;;;5095055;28;20222;-83